createdAt,value
2019-03-29T00:02:12.763Z,98737.61
2019-03-29T00:04:42.676Z,98729.30
2019-03-29T00:07:12.547Z,98720.77
2019-03-29T00:09:42.421Z,98726.67
2019-03-29T00:12:12.317Z,98722.17
2019-03-29T00:14:42.357Z,98719.28
2019-03-29T00:17:12.225Z,98720.59
2019-03-29T00:19:42.110Z,98716.62
2019-03-29T00:22:11.988Z,98715.88
2019-03-29T00:24:41.865Z,98710.72
2019-03-29T00:27:11.732Z,98716.50
2019-03-29T00:29:41.616Z,98711.26
2019-03-29T00:32:11.612Z,98720.55
2019-03-29T00:34:42.063Z,98714.70
2019-03-29T00:37:12.191Z,98709.06
2019-03-29T00:39:42.078Z,98706.13
2019-03-29T00:42:11.971Z,98704.91
2019-03-29T00:44:41.852Z,98702.73
2019-03-29T00:47:11.736Z,98703.07
2019-03-29T00:52:25.387Z,98703.42
2019-03-29T00:54:55.394Z,98704.98
2019-03-29T00:57:25.646Z,98700.41
2019-03-29T00:59:55.779Z,98700.58
2019-03-29T01:02:25.978Z,98683.09
2019-03-29T01:04:56.149Z,98685.50
2019-03-29T01:07:26.236Z,98679.61
2019-03-29T01:09:56.914Z,98683.35
2019-03-29T01:12:27.220Z,98693.28
2019-03-29T01:14:57.425Z,98687.73
2019-03-29T01:17:27.469Z,98683.35
2019-03-29T01:19:57.700Z,98682.37
2019-03-29T01:22:27.828Z,98680.55
2019-03-29T01:24:58.038Z,98676.72
2019-03-29T01:27:28.165Z,98680.23
2019-03-29T01:29:58.272Z,98682.80
2019-03-29T01:32:28.296Z,98689.29
2019-03-29T01:34:58.469Z,98683.13
2019-03-29T01:37:28.926Z,98683.94
2019-03-29T01:39:59.050Z,98683.05
2019-03-29T01:42:29.146Z,98674.04
2019-03-29T01:44:59.350Z,98678.62
2019-03-29T01:47:30.042Z,98670.66
2019-03-29T01:50:00.486Z,98675.25
2019-03-29T01:52:31.652Z,98672.12
2019-03-29T01:55:01.813Z,98681.02
2019-03-29T01:57:32.250Z,98676.06
2019-03-29T02:00:02.844Z,98681.05
2019-03-29T02:02:32.958Z,98679.31
2019-03-29T02:05:03.092Z,98683.59
2019-03-29T02:07:33.210Z,98684.69
2019-03-29T02:10:03.373Z,98681.30
2019-03-29T02:12:33.990Z,98675.87
2019-03-29T02:15:04.589Z,98669.80
2019-03-29T02:17:34.719Z,98672.75
2019-03-29T02:20:05.896Z,98670.64
2019-03-29T02:22:36.960Z,98667.55
2019-03-29T02:25:07.241Z,98662.46
2019-03-29T02:27:37.449Z,98666.28
2019-03-29T02:30:08.381Z,98661.45
2019-03-29T02:32:38.521Z,98661.48
2019-03-29T02:35:11.441Z,98659.39
2019-03-29T02:37:41.312Z,98668.13
2019-03-29T02:40:11.502Z,98670.59
2019-03-29T02:42:42.919Z,98670.92
2019-03-29T02:45:13.685Z,98673.35
2019-03-29T02:47:43.871Z,98672.51
2019-03-29T02:50:14.060Z,98674.34
2019-03-29T02:52:46.986Z,98672.48
2019-03-29T02:55:16.014Z,98667.22
2019-03-29T02:57:46.209Z,98674.13
2019-03-29T03:00:16.478Z,98670.42
2019-03-29T03:02:46.648Z,98665.16
2019-03-29T03:05:19.781Z,98674.36
2019-03-29T03:07:49.864Z,98667.35
2019-03-29T03:10:20.238Z,98672.69
2019-03-29T03:12:50.326Z,98667.89
2019-03-29T03:15:20.418Z,98663.73
2019-03-29T03:17:50.432Z,98664.97
2019-03-29T03:20:20.612Z,98660.48
2019-03-29T03:22:51.473Z,98659.55
2019-03-29T03:25:21.483Z,98659.45
2019-03-29T03:27:51.584Z,98654.47
2019-03-29T03:30:22.137Z,98651.92
2019-03-29T03:32:52.231Z,98650.68
2019-03-29T03:35:22.469Z,98643.84
2019-03-29T03:37:52.635Z,98642.55
2019-03-29T03:40:22.755Z,98643.34
2019-03-29T03:42:53.075Z,98651.28
2019-03-29T03:45:23.187Z,98643.13
2019-03-29T03:47:53.383Z,98646.14
2019-03-29T03:50:39.621Z,98645.19
2019-03-29T03:53:10.141Z,98653.97
2019-03-29T03:55:40.794Z,98645.22
2019-03-29T03:58:12.020Z,98647.91
2019-03-29T04:01:00.706Z,98646.80
2019-03-29T04:03:30.742Z,98647.68
2019-03-29T04:06:00.868Z,98639.05
2019-03-29T04:08:30.999Z,98645.36
2019-03-29T04:11:01.117Z,98636.05
2019-03-29T04:13:31.329Z,98638.78
2019-03-29T04:16:01.426Z,98645.48
2019-03-29T04:18:31.697Z,98646.41
2019-03-29T04:21:01.764Z,98645.48
2019-03-29T04:23:31.862Z,98641.30
2019-03-29T04:26:02.058Z,98649.42
2019-03-29T04:28:32.207Z,98653.75
2019-03-29T04:31:02.398Z,98657.61
2019-03-29T04:33:32.535Z,98651.45
2019-03-29T04:36:02.650Z,98652.08
2019-03-29T04:38:32.707Z,98653.52
2019-03-29T04:41:03.084Z,98657.53
2019-03-29T04:43:33.147Z,98660.77
2019-03-29T04:46:03.247Z,98665.72
2019-03-29T04:48:33.365Z,98659.21
2019-03-29T04:51:03.508Z,98661.84
2019-03-29T04:53:33.594Z,98661.84
2019-03-29T04:56:03.628Z,98660.76
2019-03-29T04:58:33.765Z,98657.75
2019-03-29T05:01:03.938Z,98662.69
2019-03-29T05:03:34.077Z,98656.34
2019-03-29T05:06:04.186Z,98656.59
2019-03-29T05:08:34.223Z,98660.84
2019-03-29T05:11:04.335Z,98656.34
2019-03-29T05:13:34.438Z,98657.28
2019-03-29T05:16:04.642Z,98657.58
2019-03-29T05:18:34.674Z,98655.42
2019-03-29T05:21:04.890Z,98660.36
2019-03-29T05:23:34.992Z,98667.70
2019-03-29T05:26:05.102Z,98665.69
2019-03-29T05:28:35.236Z,98661.05
2019-03-29T05:31:05.377Z,98661.41
2019-03-29T05:33:35.415Z,98663.48
2019-03-29T05:36:05.598Z,98672.44
2019-03-29T05:38:35.726Z,98671.89
2019-03-29T05:41:05.963Z,98672.30
2019-03-29T05:43:36.003Z,98672.89
2019-03-29T05:46:06.195Z,98670.78
2019-03-29T05:48:36.327Z,98668.05
2019-03-29T05:51:06.445Z,98665.94
2019-03-29T05:53:36.483Z,98665.09
2019-03-29T05:56:07.490Z,98661.25
2019-03-29T05:58:37.549Z,98664.34
2019-03-29T06:01:07.654Z,98663.71
2019-03-29T06:03:37.757Z,98672.92
2019-03-29T06:06:07.873Z,98668.52
2019-03-29T06:08:37.998Z,98665.86
2019-03-29T06:11:08.106Z,98669.98
2019-03-29T06:13:38.225Z,98661.14
2019-03-29T06:16:08.325Z,98666.38
2019-03-29T06:18:38.521Z,98657.14
2019-03-29T06:21:08.618Z,98656.59
2019-03-29T06:23:38.665Z,98659.13
2019-03-29T06:26:08.760Z,98655.41
2019-03-29T06:28:38.883Z,98653.53
2019-03-29T06:31:09.073Z,98649.41
2019-03-29T06:33:39.297Z,98645.13
2019-03-29T06:36:10.419Z,98649.58
2019-03-29T06:38:40.812Z,98649.38
2019-03-29T06:41:10.928Z,98643.81
2019-03-29T06:43:40.974Z,98645.00
2019-03-29T06:46:11.007Z,98648.91
2019-03-29T06:48:41.035Z,98643.78
2019-03-29T06:51:11.129Z,98640.48
2019-03-29T06:53:41.307Z,98643.87
2019-03-29T06:56:11.448Z,98643.98
2019-03-29T06:58:41.562Z,98648.75
2019-03-29T07:01:11.720Z,98646.41
2019-03-29T07:03:41.821Z,98643.77
2019-03-29T07:06:11.945Z,98641.34
2019-03-29T07:08:42.037Z,98641.48
2019-03-29T07:11:17.570Z,98644.20
2019-03-29T07:13:56.569Z,98641.34
2019-03-29T07:16:15.701Z,98627.09
2019-03-29T07:18:45.731Z,98632.66
2019-03-29T07:21:21.751Z,98630.73
2019-03-29T07:23:47.568Z,98627.44
2019-03-29T07:26:17.607Z,98628.20
2019-03-29T07:28:47.759Z,98642.09
2019-03-29T07:31:17.987Z,98642.52
2019-03-29T07:33:48.135Z,98636.97
2019-03-29T07:36:18.334Z,98640.62
2019-03-29T07:38:48.360Z,98642.66
2019-03-29T07:41:30.993Z,98635.95
2019-03-29T07:43:50.301Z,98639.77
2019-03-29T07:46:20.507Z,98642.95
2019-03-29T07:48:50.589Z,98642.28
2019-03-29T07:51:20.707Z,98640.12
2019-03-29T07:53:50.829Z,98641.91
2019-03-29T07:56:20.951Z,98636.94
2019-03-29T07:58:51.057Z,98641.09
2019-03-29T08:01:21.065Z,98640.52
2019-03-29T08:03:51.532Z,98642.55
2019-03-29T08:06:22.612Z,98640.09
2019-03-29T08:08:52.742Z,98632.31
2019-03-29T08:11:26.452Z,98629.21
2019-03-29T08:13:54.831Z,98629.68
2019-03-29T08:16:24.881Z,98634.27
2019-03-29T08:18:54.919Z,98631.94
2019-03-29T08:21:24.985Z,98625.46
2019-03-29T08:23:55.082Z,98630.28
2019-03-29T08:26:25.055Z,98630.73
2019-03-29T08:28:55.178Z,98635.34
2019-03-29T08:31:25.250Z,98628.23
2019-03-29T08:33:55.458Z,98631.62
2019-03-29T08:36:25.666Z,98628.03
2019-03-29T08:38:55.866Z,98625.59
2019-03-29T08:41:25.992Z,98630.22
2019-03-29T08:43:56.021Z,98623.08
2019-03-29T08:46:26.211Z,98620.25
2019-03-29T08:48:56.195Z,98619.22
2019-03-29T08:51:26.242Z,98616.87
2019-03-29T08:53:56.268Z,98618.47
2019-03-29T08:56:26.418Z,98616.68
2019-03-29T08:58:56.546Z,98616.02
2019-03-29T09:01:26.770Z,98617.25
2019-03-29T09:04:05.294Z,98609.99
2019-03-29T09:06:30.332Z,98625.96
2019-03-29T09:09:00.790Z,98615.51
2019-03-29T09:11:31.037Z,98617.66
2019-03-29T09:14:01.240Z,98614.93
2019-03-29T09:17:05.214Z,98614.27
2019-03-29T09:19:36.135Z,98613.33
2019-03-29T09:22:06.194Z,98612.09
2019-03-29T09:24:36.249Z,98608.72
2019-03-29T09:27:06.313Z,98603.25
2019-03-29T09:29:36.488Z,98600.14
2019-03-29T09:32:06.579Z,98604.66
2019-03-29T09:34:36.811Z,98601.92
2019-03-29T09:37:06.944Z,98587.02
2019-03-29T09:39:37.052Z,98585.70
2019-03-29T09:42:09.615Z,98588.61
2019-03-29T09:44:38.939Z,98591.80
2019-03-29T09:47:09.009Z,98586.80
2019-03-29T09:49:39.129Z,98580.00
2019-03-29T09:52:09.325Z,98583.45
2019-03-29T09:54:39.346Z,98579.03
2019-03-29T09:57:10.222Z,98580.25
2019-03-29T09:59:41.367Z,98580.69
2019-03-29T10:02:11.517Z,98575.23
2019-03-29T10:04:41.569Z,98575.56
2019-03-29T10:07:11.584Z,98564.60
2019-03-29T10:09:41.723Z,98569.98
2019-03-29T10:12:13.605Z,98567.77
2019-03-29T10:14:43.743Z,98560.75
2019-03-29T10:17:13.870Z,98557.92
2019-03-29T10:19:43.989Z,98562.91
2019-03-29T10:22:14.120Z,98562.59
2019-03-29T10:24:44.395Z,98555.99
2019-03-29T10:27:14.545Z,98552.40
2019-03-29T10:29:44.755Z,98554.83
2019-03-29T10:32:14.901Z,98553.08
2019-03-29T10:34:44.958Z,98534.78
2019-03-29T10:37:15.070Z,98534.16
2019-03-29T10:39:45.175Z,98532.25
2019-03-29T10:42:15.325Z,98534.41
2019-03-29T10:44:45.497Z,98528.95
2019-03-29T10:47:15.642Z,98534.02
2019-03-29T10:49:45.525Z,98530.47
2019-03-29T10:52:15.436Z,98528.09
2019-03-29T10:54:45.367Z,98529.19
2019-03-29T10:57:15.366Z,98533.82
2019-03-29T10:59:45.360Z,98521.33
2019-03-29T11:02:15.248Z,98526.11
2019-03-29T11:04:45.131Z,98522.58
2019-03-29T11:07:15.752Z,98530.77
2019-03-29T11:09:46.151Z,98528.31
2019-03-29T11:12:16.428Z,98520.26
2019-03-29T11:14:46.302Z,98517.25
2019-03-29T11:17:16.203Z,98517.58
2019-03-29T11:19:46.337Z,98518.17
2019-03-29T11:22:16.236Z,98511.45
2019-03-29T11:24:46.213Z,98526.84
2019-03-29T11:27:16.161Z,98521.33
2019-03-29T11:29:46.050Z,98510.48
2019-03-29T11:32:15.972Z,98512.18
2019-03-29T11:34:45.863Z,98513.28
2019-03-29T11:37:15.831Z,98503.77
2019-03-29T11:39:45.820Z,98506.89
2019-03-29T11:42:15.777Z,98503.43
2019-03-29T11:44:45.681Z,98504.05
2019-03-29T11:47:15.565Z,98506.10
2019-03-29T11:49:46.435Z,98499.15
2019-03-29T11:52:16.332Z,98493.16
2019-03-29T11:54:46.211Z,98491.21
2019-03-29T11:57:16.101Z,98494.36
2019-03-29T11:59:45.982Z,98494.98
2019-03-29T12:02:30.207Z,98494.80
2019-03-29T12:04:47.592Z,98489.65
2019-03-29T12:07:17.486Z,98484.83
2019-03-29T12:09:47.391Z,98486.50
2019-03-29T12:12:17.375Z,98474.38
2019-03-29T12:14:47.289Z,98478.84
2019-03-29T12:17:17.173Z,98479.09
2019-03-29T12:19:47.065Z,98474.17
2019-03-29T12:22:16.968Z,98474.55
2019-03-29T12:24:47.382Z,98483.23
2019-03-29T12:27:17.268Z,98476.25
2019-03-29T12:29:47.166Z,98473.13
2019-03-29T12:32:17.064Z,98468.17
2019-03-29T12:34:46.965Z,98476.37
2019-03-29T12:37:16.863Z,98462.43
2019-03-29T12:39:46.827Z,98467.13
2019-03-29T12:42:16.822Z,98467.84
2019-03-29T12:44:46.726Z,98457.48
2019-03-29T12:47:16.626Z,98463.27
2019-03-29T12:49:46.504Z,98457.73
2019-03-29T12:52:16.511Z,98455.20
2019-03-29T12:54:46.973Z,98452.44
2019-03-29T12:57:16.875Z,98447.63
2019-03-29T12:59:46.784Z,98446.66
2019-03-29T13:02:17.819Z,98450.51
2019-03-29T13:04:47.797Z,98446.05
2019-03-29T13:07:17.770Z,98446.31
2019-03-29T13:09:47.679Z,98441.13
2019-03-29T13:12:17.652Z,98429.67
2019-03-29T13:14:47.612Z,98427.98
2019-03-29T13:17:17.461Z,98432.56
2019-03-29T13:19:47.363Z,98427.46
2019-03-29T13:22:17.438Z,98415.46
2019-03-29T13:24:47.477Z,98407.53
2019-03-29T13:27:17.353Z,98402.93
2019-03-29T13:29:47.426Z,98396.37
2019-03-29T13:32:17.332Z,98404.31
2019-03-29T13:34:47.438Z,98392.42
2019-03-29T13:37:18.329Z,98388.56
2019-03-29T13:39:48.299Z,98387.78
2019-03-29T13:42:18.197Z,98376.19
2019-03-29T13:44:48.658Z,98377.43
2019-03-29T13:47:18.544Z,98371.50
2019-03-29T13:49:48.446Z,98369.73
2019-03-29T13:52:18.328Z,98363.76
2019-03-29T13:54:48.237Z,98360.98
2019-03-29T13:57:18.126Z,98360.48
2019-03-29T13:59:48.041Z,98369.73
2019-03-29T14:02:17.955Z,98361.61
2019-03-29T14:04:47.859Z,98360.52
2019-03-29T14:07:17.769Z,98359.02
2019-03-29T14:09:47.667Z,98349.77
2019-03-29T14:12:17.549Z,98349.48
2019-03-29T14:14:47.456Z,98354.52
2019-03-29T14:17:17.416Z,98353.83
2019-03-29T14:19:47.341Z,98345.44
2019-03-29T14:22:17.239Z,98341.98
2019-03-29T14:24:47.217Z,98340.86
2019-03-29T14:27:17.128Z,98345.20
2019-03-29T14:29:47.003Z,98340.86
2019-03-29T14:32:16.899Z,98338.20
2019-03-29T14:34:46.824Z,98327.97
2019-03-29T14:37:16.715Z,98327.76
2019-03-29T14:39:46.687Z,98329.59
2019-03-29T14:42:16.740Z,98325.18
2019-03-29T14:44:52.832Z,98324.67
2019-03-29T14:47:18.313Z,98321.74
2019-03-29T14:49:48.214Z,98320.67
2019-03-29T14:52:18.114Z,98321.88
2019-03-29T14:54:47.997Z,98323.70
2019-03-29T14:57:17.892Z,98313.48
2019-03-29T14:59:47.779Z,98309.62
2019-03-29T15:02:17.672Z,98306.32
2019-03-29T15:04:47.570Z,98312.41
2019-03-29T15:07:17.468Z,98309.61
2019-03-29T15:09:47.762Z,98305.81
2019-03-29T15:12:17.667Z,98290.75
2019-03-29T15:14:47.546Z,98306.17
2019-03-29T15:17:17.437Z,98296.48
2019-03-29T15:19:47.351Z,98292.87
2019-03-29T15:22:17.253Z,98292.95
2019-03-29T15:24:47.287Z,98297.15
2019-03-29T15:27:17.183Z,98291.47
2019-03-29T15:29:47.073Z,98284.09
2019-03-29T15:32:16.960Z,98290.83
2019-03-29T15:34:46.842Z,98287.14
2019-03-29T15:37:16.748Z,98275.20
2019-03-29T15:39:46.643Z,98275.74
2019-03-29T15:42:16.530Z,98269.57
2019-03-29T15:44:46.415Z,98266.41
2019-03-29T15:47:16.353Z,98269.03
2019-03-29T15:49:55.893Z,98273.03
2019-03-29T15:52:17.811Z,98270.84
2019-03-29T15:54:47.706Z,98266.97
2019-03-29T15:57:17.607Z,98269.53
2019-03-29T15:59:47.501Z,98266.86
2019-03-29T16:02:17.406Z,98263.06
2019-03-29T16:04:47.328Z,98260.20
2019-03-29T16:07:17.216Z,98261.88
2019-03-29T16:09:47.127Z,98263.34
2019-03-29T16:12:17.028Z,98263.41
2019-03-29T16:14:46.924Z,98263.70
2019-03-29T16:17:17.128Z,98261.88
2019-03-29T16:19:47.029Z,98259.86
2019-03-29T16:22:17.278Z,98250.18
2019-03-29T16:24:47.171Z,98254.63
2019-03-29T16:27:17.086Z,98255.77
2019-03-29T16:29:46.969Z,98249.69
2019-03-29T16:32:16.860Z,98245.25
2019-03-29T16:34:46.745Z,98246.63
2019-03-29T16:37:16.670Z,98242.38
2019-03-29T16:39:46.561Z,98250.08
2019-03-29T16:42:16.469Z,98250.28
2019-03-29T16:44:46.371Z,98245.74
2019-03-29T16:47:16.312Z,98248.66
2019-03-29T16:49:46.305Z,98250.14
2019-03-29T16:52:16.290Z,98249.90
2019-03-29T16:54:46.289Z,98245.05
2019-03-29T16:57:16.190Z,98245.39
2019-03-29T16:59:46.223Z,98245.73
2019-03-29T17:02:16.513Z,98249.83
2019-03-29T17:04:46.398Z,98245.39
2019-03-29T17:07:16.296Z,98243.11
2019-03-29T17:09:46.221Z,98246.55
2019-03-29T17:12:16.124Z,98243.42
2019-03-29T17:14:46.024Z,98247.41
2019-03-29T17:17:15.927Z,98244.84
2019-03-29T17:19:45.909Z,98238.36
2019-03-29T17:22:15.813Z,98238.50
2019-03-29T17:24:56.265Z,98246.48
2019-03-29T17:27:17.340Z,98241.30
2019-03-29T17:29:47.236Z,98240.98
2019-03-29T17:32:17.123Z,98243.23
2019-03-29T17:34:47.029Z,98239.73
2019-03-29T17:37:17.158Z,98252.52
2019-03-29T17:39:47.364Z,98249.09
2019-03-29T17:42:17.473Z,98241.47
2019-03-29T17:44:47.627Z,98249.24
2019-03-29T17:47:17.686Z,98254.56
2019-03-29T17:49:47.827Z,98252.81
2019-03-29T17:52:17.994Z,98256.03
2019-03-29T17:54:48.033Z,98254.63
2019-03-29T17:57:18.154Z,98249.16
2019-03-29T17:59:48.303Z,98250.31
2019-03-29T18:02:18.707Z,98256.17
2019-03-29T18:04:48.746Z,98261.55
2019-03-29T18:07:18.877Z,98258.42
2019-03-29T18:09:49.017Z,98263.57
2019-03-29T18:12:19.045Z,98259.91
2019-03-29T18:14:49.276Z,98261.42
2019-03-29T18:17:19.324Z,98266.44
2019-03-29T18:19:49.451Z,98271.80
2019-03-29T18:22:19.567Z,98266.66
2019-03-29T18:24:49.614Z,98269.02
2019-03-29T18:27:19.770Z,98271.36
2019-03-29T18:29:49.910Z,98273.21
2019-03-29T18:32:20.662Z,98265.07
2019-03-29T18:34:50.804Z,98273.55
2019-03-29T18:37:21.897Z,98272.53
2019-03-29T18:39:54.809Z,98269.42
2019-03-29T18:42:23.910Z,98273.22
2019-03-29T18:44:54.074Z,98277.48
2019-03-29T18:47:24.244Z,98277.87
2019-03-29T18:49:54.886Z,98280.69
2019-03-29T18:52:25.306Z,98280.00
2019-03-29T18:54:55.472Z,98280.51
2019-03-29T18:57:25.590Z,98275.00
2019-03-29T18:59:55.760Z,98278.19
2019-03-29T19:02:25.957Z,98274.23
2019-03-29T19:04:56.065Z,98282.69
2019-03-29T19:07:29.940Z,98277.86
2019-03-29T19:10:00.396Z,98282.82
2019-03-29T19:12:30.543Z,98275.73
2019-03-29T19:15:00.670Z,98277.91
2019-03-29T19:17:30.854Z,98281.54
2019-03-29T19:20:00.945Z,98271.92
2019-03-29T19:22:31.180Z,98273.86
2019-03-29T19:25:01.371Z,98276.64
2019-03-29T19:27:31.564Z,98277.02
2019-03-29T19:30:01.680Z,98274.04
2019-03-29T19:32:31.807Z,98281.98
2019-03-29T19:35:01.925Z,98283.44
2019-03-29T19:37:32.051Z,98280.31
2019-03-29T19:40:02.192Z,98279.70
2019-03-29T19:42:32.340Z,98276.94
2019-03-29T19:45:02.456Z,98270.45
2019-03-29T19:47:32.589Z,98274.77
2019-03-29T19:50:02.627Z,98273.20
2019-03-29T19:52:32.762Z,98273.53
2019-03-29T19:55:03.010Z,98280.51
2019-03-29T19:57:33.219Z,98274.61
2019-03-29T20:00:06.089Z,98276.41
2019-03-29T20:02:35.434Z,98273.64
2019-03-29T20:05:06.015Z,98275.43
2019-03-29T20:07:36.114Z,98272.92
2019-03-29T20:10:06.961Z,98273.64
2019-03-29T20:12:37.071Z,98273.27
2019-03-29T20:15:07.350Z,98276.98
2019-03-29T20:17:37.394Z,98273.35
2019-03-29T20:20:07.910Z,98279.59
2019-03-29T20:22:38.024Z,98273.33
2019-03-29T20:25:08.233Z,98269.58
2019-03-29T20:27:38.356Z,98266.92
2019-03-29T20:30:08.624Z,98268.34
2019-03-29T20:32:38.657Z,98260.52
2019-03-29T20:35:08.852Z,98256.06
2019-03-29T20:37:39.052Z,98262.16
2019-03-29T20:40:09.267Z,98259.97
2019-03-29T20:42:39.389Z,98250.84
2019-03-29T20:45:09.811Z,98258.73
2019-03-29T20:47:42.410Z,98257.53
2019-03-29T20:50:11.889Z,98252.70
2019-03-29T20:52:42.079Z,98249.92
2019-03-29T20:55:12.283Z,98256.23
2019-03-29T20:57:42.399Z,98248.17
2019-03-29T21:00:14.500Z,98247.08
2019-03-29T21:02:44.649Z,98248.98
2019-03-29T21:05:14.856Z,98246.20
2019-03-29T21:07:44.982Z,98247.49
2019-03-29T21:10:15.772Z,98239.53
2019-03-29T21:12:46.055Z,98244.67
2019-03-29T21:15:16.120Z,98244.16
2019-03-29T21:17:56.786Z,98239.69
2019-03-29T21:20:18.221Z,98244.52
2019-03-29T21:22:50.970Z,98250.61
2019-03-29T21:25:20.246Z,98242.61
2019-03-29T21:27:50.357Z,98249.38
2019-03-29T21:30:20.555Z,98243.53
2019-03-29T21:32:50.587Z,98242.02
2019-03-29T21:35:20.647Z,98239.46
2019-03-29T21:37:50.857Z,98235.98
2019-03-29T21:40:21.324Z,98231.31
2019-03-29T21:42:51.496Z,98235.42
2019-03-29T21:45:28.475Z,98227.98
2019-03-29T21:50:35.842Z,98230.02
2019-03-29T21:53:05.790Z,98236.09
2019-03-29T21:55:35.662Z,98228.13
2019-03-29T21:58:05.604Z,98229.66
2019-03-29T22:00:35.512Z,98221.70
2019-03-29T22:03:05.463Z,98229.45
2019-03-29T22:05:35.333Z,98226.44
2019-03-29T22:08:06.026Z,98222.12
2019-03-29T22:10:35.895Z,98222.94
2019-03-29T22:13:05.854Z,98220.62
2019-03-29T22:15:35.724Z,98216.50
2019-03-29T22:18:07.007Z,98216.61
2019-03-29T22:20:37.023Z,98210.70
2019-03-29T22:23:06.901Z,98208.75
2019-03-29T22:25:36.763Z,98210.48
2019-03-29T22:28:06.645Z,98205.31
2019-03-29T22:30:36.526Z,98201.30
2019-03-29T22:33:06.459Z,98198.41
2019-03-29T22:35:36.397Z,98199.59
2019-03-29T22:38:06.354Z,98203.35
2019-03-29T22:40:36.231Z,98194.98
2019-03-29T22:43:07.585Z,98197.91
2019-03-29T22:45:37.573Z,98189.58
2019-03-29T22:48:07.532Z,98192.88
2019-03-29T22:50:37.397Z,98189.77
2019-03-29T22:53:07.272Z,98189.97
2019-03-29T22:55:37.149Z,98184.23
2019-03-29T22:58:07.027Z,98184.06
2019-03-29T23:00:42.094Z,98190.47
2019-03-29T23:03:12.148Z,98183.62
2019-03-29T23:05:42.095Z,98183.72
2019-03-29T23:08:12.038Z,98177.73
2019-03-29T23:10:41.917Z,98172.69
2019-03-29T23:13:11.796Z,98177.87
2019-03-29T23:15:41.681Z,98174.31
2019-03-29T23:18:11.567Z,98162.58
2019-03-29T23:20:41.440Z,98163.98
2019-03-29T23:23:11.318Z,98166.25
2019-03-29T23:25:41.192Z,98164.61
2019-03-29T23:28:11.417Z,98166.77
2019-03-29T23:30:41.295Z,98161.53
2019-03-29T23:33:11.183Z,98168.58
2019-03-29T23:35:41.058Z,98169.14
2019-03-29T23:38:11.020Z,98157.41
2019-03-29T23:40:40.896Z,98164.34
2019-03-29T23:43:10.779Z,98160.31
2019-03-29T23:45:40.643Z,98157.95
2019-03-29T23:48:10.533Z,98150.71
2019-03-29T23:50:40.401Z,98154.46
2019-03-29T23:53:10.284Z,98142.83
2019-03-29T23:55:40.209Z,98151.55
2019-03-29T23:58:10.096Z,98146.30
